Terminal Aerodrome Forecast
Issued by NWS Sterling, VA

Current Version | Previous Version | Graphics & Text | Print | Product List | Glossary On
Versions: 1 2 3 4 5 6 7 8 9 10 11 12 13 14 15 16 17 18 19 20
000
FTUS41 KLWX 180849 AAA
TAFMRB
TAF AMD
KMRB 180849Z 1809/1906 00000KT 3SM BR SCT070
     FM181100 00000KT 1 1/2SM BR BKN015
     FM181200 00000KT 2SM BR BKN015
     FM181400 00000KT P6SM BKN015
     FM181700 05004KT P6SM BKN035
     FM190500 00000KT P6SM SCT060=

USA.gov is the U.S. government's official web portal to all federal, state and local government web resources and services.